Las Vegas, Nevada
Traffic Map
Current Weather Conditions
Las Vegas, Nevada
Scattered Clouds
Scattered Clouds
22°
Feels Like: 22°
Wind Chill: 22° Ceiling: Unl
Heat Index: 22° Visibility: 10mi
Dew Point: -9° Wind: 14mph
Humidity: 12% Direction: 40° (NE)
Pressure: 29.85in Gusts: 20mph
Raw Report DataKLAS 270056Z 04012G17KT 10SM FEW100 SCT250 22/M09 A2985 RMK AO2 WSHFT 0012 SLP095 T02221089 $
Traffic Incident Summary
Active as of:
Severity:
Category:
InformationThere was an issue retrieving the traffic information for this location. Please try a different location or try again shortly.
Advertisements
Track Severe Weather on mobile